sensor_id;sensor_type;location;lat;lon;timestamp;P1;durP1;ratioP1;P2;durP2;ratioP2
13560;SDS011;6852;51.686;5.314;2022-10-16T00:01:15;3.13;;;2.13;;
13560;SDS011;6852;51.686;5.314;2022-10-16T00:03:43;4.17;;;2.23;;
13560;SDS011;6852;51.686;5.314;2022-10-16T00:06:12;4.73;;;2.37;;
13560;SDS011;6852;51.686;5.314;2022-10-16T00:08:40;4.70;;;2.13;;
13560;SDS011;6852;51.686;5.314;2022-10-16T00:11:08;4.67;;;2.53;;
13560;SDS011;6852;51.686;5.314;2022-10-16T00:13:37;3.33;;;2.00;;
13560;SDS011;6852;51.686;5.314;2022-10-16T00:16:05;3.03;;;2.23;;
13560;SDS011;6852;51.686;5.314;2022-10-16T00:18:32;3.47;;;2.23;;
13560;SDS011;6852;51.686;5.314;2022-10-16T00:21:10;5.03;;;3.40;;
13560;SDS011;6852;51.686;5.314;2022-10-16T00:23:42;6.33;;;2.63;;
13560;SDS011;6852;51.686;5.314;2022-10-16T00:26:12;2.97;;;2.10;;
13560;SDS011;6852;51.686;5.314;2022-10-16T00:28:40;5.40;;;2.43;;
13560;SDS011;6852;51.686;5.314;2022-10-16T00:31:08;6.53;;;3.00;;
13560;SDS011;6852;51.686;5.314;2022-10-16T00:33:37;5.27;;;2.57;;
13560;SDS011;6852;51.686;5.314;2022-10-16T00:36:06;3.83;;;2.00;;
13560;SDS011;6852;51.686;5.314;2022-10-16T00:38:34;5.37;;;2.20;;
13560;SDS011;6852;51.686;5.314;2022-10-16T00:41:01;6.77;;;2.50;;
13560;SDS011;6852;51.686;5.314;2022-10-16T00:43:38;4.93;;;2.13;;
13560;SDS011;6852;51.686;5.314;2022-10-16T00:46:49;4.70;;;2.50;;
13560;SDS011;6852;51.686;5.314;2022-10-16T00:49:16;3.00;;;2.30;;
13560;SDS011;6852;51.686;5.314;2022-10-16T00:51:46;3.40;;;2.23;;
13560;SDS011;6852;51.686;5.314;2022-10-16T00:54:30;4.10;;;2.80;;
13560;SDS011;6852;51.686;5.314;2022-10-16T00:57:02;4.73;;;3.00;;
13560;SDS011;6852;51.686;5.314;2022-10-16T00:59:33;4.87;;;2.60;;
13560;SDS011;6852;51.686;5.314;2022-10-16T01:02:03;7.43;;;3.33;;
13560;SDS011;6852;51.686;5.314;2022-10-16T01:04:32;4.10;;;2.60;;
13560;SDS011;6852;51.686;5.314;2022-10-16T01:12:32;4.07;;;2.73;;
13560;SDS011;6852;51.686;5.314;2022-10-16T01:17:45;4.03;;;2.20;;
13560;SDS011;6852;51.686;5.314;2022-10-16T01:23:03;4.93;;;2.40;;
13560;SDS011;6852;51.686;5.314;2022-10-16T01:28:16;3.93;;;2.67;;
13560;SDS011;6852;51.686;5.314;2022-10-16T01:30:45;2.70;;;2.20;;
13560;SDS011;6852;51.686;5.314;2022-10-16T01:33:17;3.43;;;1.93;;
13560;SDS011;6852;51.686;5.314;2022-10-16T01:35:48;3.10;;;2.20;;
13560;SDS011;6852;51.686;5.314;2022-10-16T01:38:21;3.97;;;2.07;;
13560;SDS011;6852;51.686;5.314;2022-10-16T01:40:58;3.93;;;2.10;;
13560;SDS011;6852;51.686;5.314;2022-10-16T01:43:33;3.60;;;2.20;;
13560;SDS011;6852;51.686;5.314;2022-10-16T01:46:04;4.57;;;2.50;;
13560;SDS011;6852;51.686;5.314;2022-10-16T01:48:33;4.47;;;2.70;;
13560;SDS011;6852;51.686;5.314;2022-10-16T01:51:06;4.60;;;2.60;;
13560;SDS011;6852;51.686;5.314;2022-10-16T01:53:36;3.93;;;1.80;;
13560;SDS011;6852;51.686;5.314;2022-10-16T01:56:03;2.43;;;1.70;;
13560;SDS011;6852;51.686;5.314;2022-10-16T01:58:34;2.03;;;1.83;;
13560;SDS011;6852;51.686;5.314;2022-10-16T02:01:06;4.23;;;2.00;;
13560;SDS011;6852;51.686;5.314;2022-10-16T02:03:37;4.23;;;2.20;;
13560;SDS011;6852;51.686;5.314;2022-10-16T02:06:05;2.37;;;1.60;;
13560;SDS011;6852;51.686;5.314;2022-10-16T02:08:33;2.60;;;1.77;;
13560;SDS011;6852;51.686;5.314;2022-10-16T02:11:00;3.47;;;1.83;;
13560;SDS011;6852;51.686;5.314;2022-10-16T02:13:30;2.07;;;1.70;;
13560;SDS011;6852;51.686;5.314;2022-10-16T02:16:11;2.60;;;1.70;;
13560;SDS011;6852;51.686;5.314;2022-10-16T02:18:40;1.80;;;1.50;;
13560;SDS011;6852;51.686;5.314;2022-10-16T02:21:13;2.73;;;1.57;;
13560;SDS011;6852;51.686;5.314;2022-10-16T02:26:17;2.30;;;1.60;;
13560;SDS011;6852;51.686;5.314;2022-10-16T02:28:53;1.77;;;1.50;;
13560;SDS011;6852;51.686;5.314;2022-10-16T02:31:26;3.43;;;1.50;;
13560;SDS011;6852;51.686;5.314;2022-10-16T02:33:58;3.40;;;1.63;;
13560;SDS011;6852;51.686;5.314;2022-10-16T02:36:26;3.53;;;1.63;;
13560;SDS011;6852;51.686;5.314;2022-10-16T02:38:54;4.10;;;2.10;;
13560;SDS011;6852;51.686;5.314;2022-10-16T02:41:21;1.80;;;1.50;;
13560;SDS011;6852;51.686;5.314;2022-10-16T02:43:49;5.57;;;2.90;;
13560;SDS011;6852;51.686;5.314;2022-10-16T02:46:16;3.30;;;1.30;;
13560;SDS011;6852;51.686;5.314;2022-10-16T02:48:44;5.47;;;1.73;;
13560;SDS011;6852;51.686;5.314;2022-10-16T02:51:11;4.63;;;1.40;;
13560;SDS011;6852;51.686;5.314;2022-10-16T02:53:38;3.07;;;1.47;;
13560;SDS011;6852;51.686;5.314;2022-10-16T02:56:05;2.30;;;1.63;;
13560;SDS011;6852;51.686;5.314;2022-10-16T02:58:32;2.50;;;2.10;;
13560;SDS011;6852;51.686;5.314;2022-10-16T03:00:59;2.53;;;1.30;;
13560;SDS011;6852;51.686;5.314;2022-10-16T03:03:26;2.03;;;1.33;;
13560;SDS011;6852;51.686;5.314;2022-10-16T03:05:53;4.27;;;1.40;;
13560;SDS011;6852;51.686;5.314;2022-10-16T03:08:20;1.53;;;1.23;;
13560;SDS011;6852;51.686;5.314;2022-10-16T03:10:49;2.70;;;1.53;;
13560;SDS011;6852;51.686;5.314;2022-10-16T03:13:17;1.57;;;1.17;;
13560;SDS011;6852;51.686;5.314;2022-10-16T03:15:46;3.13;;;1.50;;
13560;SDS011;6852;51.686;5.314;2022-10-16T03:18:14;1.93;;;1.17;;
13560;SDS011;6852;51.686;5.314;2022-10-16T03:20:42;1.83;;;1.43;;
13560;SDS011;6852;51.686;5.314;2022-10-16T03:23:09;3.40;;;1.13;;
13560;SDS011;6852;51.686;5.314;2022-10-16T03:25:36;2.27;;;1.17;;
13560;SDS011;6852;51.686;5.314;2022-10-16T03:28:03;4.40;;;1.50;;
13560;SDS011;6852;51.686;5.314;2022-10-16T03:30:30;3.50;;;1.20;;
13560;SDS011;6852;51.686;5.314;2022-10-16T03:32:57;2.80;;;1.47;;
13560;SDS011;6852;51.686;5.314;2022-10-16T03:35:24;2.10;;;1.20;;
13560;SDS011;6852;51.686;5.314;2022-10-16T03:37:51;2.40;;;1.17;;
13560;SDS011;6852;51.686;5.314;2022-10-16T03:40:19;2.30;;;1.30;;
13560;SDS011;6852;51.686;5.314;2022-10-16T03:42:46;3.27;;;1.90;;
13560;SDS011;6852;51.686;5.314;2022-10-16T03:45:12;2.53;;;1.27;;
13560;SDS011;6852;51.686;5.314;2022-10-16T03:47:40;1.73;;;1.50;;
13560;SDS011;6852;51.686;5.314;2022-10-16T03:50:07;5.30;;;1.60;;
13560;SDS011;6852;51.686;5.314;2022-10-16T03:52:34;2.80;;;1.50;;
13560;SDS011;6852;51.686;5.314;2022-10-16T03:55:01;3.23;;;1.33;;
13560;SDS011;6852;51.686;5.314;2022-10-16T03:57:29;2.00;;;1.60;;
13560;SDS011;6852;51.686;5.314;2022-10-16T03:59:55;1.70;;;1.43;;
13560;SDS011;6852;51.686;5.314;2022-10-16T04:02:22;2.43;;;1.50;;
13560;SDS011;6852;51.686;5.314;2022-10-16T04:04:49;1.20;;;1.10;;
13560;SDS011;6852;51.686;5.314;2022-10-16T04:07:16;1.33;;;1.23;;
13560;SDS011;6852;51.686;5.314;2022-10-16T04:09:43;1.87;;;1.30;;
13560;SDS011;6852;51.686;5.314;2022-10-16T04:12:11;1.60;;;1.30;;
13560;SDS011;6852;51.686;5.314;2022-10-16T04:14:38;2.10;;;1.23;;
13560;SDS011;6852;51.686;5.314;2022-10-16T04:17:05;3.67;;;1.50;;
13560;SDS011;6852;51.686;5.314;2022-10-16T04:19:32;3.20;;;1.60;;
13560;SDS011;6852;51.686;5.314;2022-10-16T04:21:58;2.37;;;1.30;;
13560;SDS011;6852;51.686;5.314;2022-10-16T04:24:25;1.57;;;1.40;;
13560;SDS011;6852;51.686;5.314;2022-10-16T04:26:52;2.63;;;1.40;;
13560;SDS011;6852;51.686;5.314;2022-10-16T04:29:19;2.70;;;1.30;;
13560;SDS011;6852;51.686;5.314;2022-10-16T04:31:46;3.17;;;1.57;;
13560;SDS011;6852;51.686;5.314;2022-10-16T04:34:13;2.60;;;1.70;;
13560;SDS011;6852;51.686;5.314;2022-10-16T04:36:40;2.33;;;1.33;;
13560;SDS011;6852;51.686;5.314;2022-10-16T04:39:07;1.77;;;1.27;;
13560;SDS011;6852;51.686;5.314;2022-10-16T04:41:33;3.90;;;1.40;;
13560;SDS011;6852;51.686;5.314;2022-10-16T04:44:00;2.00;;;1.30;;
13560;SDS011;6852;51.686;5.314;2022-10-16T04:46:27;2.23;;;1.43;;
13560;SDS011;6852;51.686;5.314;2022-10-16T04:48:54;1.77;;;1.50;;
13560;SDS011;6852;51.686;5.314;2022-10-16T04:51:21;2.07;;;1.60;;
13560;SDS011;6852;51.686;5.314;2022-10-16T04:53:48;2.27;;;1.47;;
13560;SDS011;6852;51.686;5.314;2022-10-16T04:56:14;2.40;;;1.20;;
13560;SDS011;6852;51.686;5.314;2022-10-16T04:58:41;2.83;;;1.30;;
13560;SDS011;6852;51.686;5.314;2022-10-16T05:01:08;2.20;;;1.20;;
13560;SDS011;6852;51.686;5.314;2022-10-16T05:03:35;2.60;;;1.30;;
13560;SDS011;6852;51.686;5.314;2022-10-16T05:06:04;5.00;;;1.60;;
13560;SDS011;6852;51.686;5.314;2022-10-16T05:08:32;3.93;;;1.30;;
13560;SDS011;6852;51.686;5.314;2022-10-16T05:10:59;3.60;;;1.50;;
13560;SDS011;6852;51.686;5.314;2022-10-16T05:13:26;3.10;;;1.57;;
13560;SDS011;6852;51.686;5.314;2022-10-16T05:15:53;3.53;;;1.43;;
13560;SDS011;6852;51.686;5.314;2022-10-16T05:18:20;2.23;;;1.13;;
13560;SDS011;6852;51.686;5.314;2022-10-16T05:20:47;3.93;;;1.53;;
13560;SDS011;6852;51.686;5.314;2022-10-16T05:23:14;4.37;;;1.40;;
13560;SDS011;6852;51.686;5.314;2022-10-16T05:25:41;1.87;;;1.23;;
13560;SDS011;6852;51.686;5.314;2022-10-16T05:28:07;3.87;;;1.40;;
13560;SDS011;6852;51.686;5.314;2022-10-16T05:30:36;6.53;;;1.40;;
13560;SDS011;6852;51.686;5.314;2022-10-16T05:33:03;1.43;;;1.33;;
13560;SDS011;6852;51.686;5.314;2022-10-16T05:35:30;3.10;;;1.30;;
13560;SDS011;6852;51.686;5.314;2022-10-16T05:37:57;3.17;;;1.37;;
13560;SDS011;6852;51.686;5.314;2022-10-16T05:40:24;1.80;;;1.43;;
13560;SDS011;6852;51.686;5.314;2022-10-16T05:42:54;3.60;;;1.43;;
13560;SDS011;6852;51.686;5.314;2022-10-16T05:45:21;5.83;;;1.60;;
13560;SDS011;6852;51.686;5.314;2022-10-16T05:47:48;3.93;;;1.43;;
13560;SDS011;6852;51.686;5.314;2022-10-16T05:50:15;1.60;;;1.30;;
13560;SDS011;6852;51.686;5.314;2022-10-16T05:52:42;3.93;;;1.40;;
13560;SDS011;6852;51.686;5.314;2022-10-16T05:55:09;3.03;;;1.10;;
13560;SDS011;6852;51.686;5.314;2022-10-16T05:57:35;1.40;;;1.30;;
13560;SDS011;6852;51.686;5.314;2022-10-16T06:00:03;2.80;;;1.27;;
13560;SDS011;6852;51.686;5.314;2022-10-16T06:02:32;3.97;;;1.20;;
13560;SDS011;6852;51.686;5.314;2022-10-16T06:04:58;1.90;;;1.50;;
13560;SDS011;6852;51.686;5.314;2022-10-16T06:07:25;1.43;;;1.17;;
13560;SDS011;6852;51.686;5.314;2022-10-16T06:09:53;4.37;;;1.33;;
13560;SDS011;6852;51.686;5.314;2022-10-16T06:12:19;2.40;;;1.50;;
13560;SDS011;6852;51.686;5.314;2022-10-16T06:14:46;1.90;;;1.50;;
13560;SDS011;6852;51.686;5.314;2022-10-16T06:17:13;1.57;;;1.27;;
13560;SDS011;6852;51.686;5.314;2022-10-16T06:19:41;3.10;;;1.47;;
13560;SDS011;6852;51.686;5.314;2022-10-16T06:22:07;2.97;;;1.50;;
13560;SDS011;6852;51.686;5.314;2022-10-16T06:24:34;2.27;;;1.23;;
13560;SDS011;6852;51.686;5.314;2022-10-16T06:27:02;2.40;;;1.40;;
13560;SDS011;6852;51.686;5.314;2022-10-16T06:29:30;5.10;;;1.70;;
13560;SDS011;6852;51.686;5.314;2022-10-16T06:31:57;2.30;;;1.50;;
13560;SDS011;6852;51.686;5.314;2022-10-16T06:34:23;2.03;;;1.30;;
13560;SDS011;6852;51.686;5.314;2022-10-16T06:36:50;2.17;;;1.43;;
13560;SDS011;6852;51.686;5.314;2022-10-16T06:39:17;3.23;;;1.70;;
13560;SDS011;6852;51.686;5.314;2022-10-16T06:41:44;3.60;;;1.77;;
13560;SDS011;6852;51.686;5.314;2022-10-16T06:44:11;2.20;;;1.40;;
13560;SDS011;6852;51.686;5.314;2022-10-16T06:46:38;3.43;;;1.93;;
13560;SDS011;6852;51.686;5.314;2022-10-16T06:49:05;4.10;;;1.60;;
13560;SDS011;6852;51.686;5.314;2022-10-16T06:51:31;3.60;;;1.60;;
13560;SDS011;6852;51.686;5.314;2022-10-16T06:54:05;1.90;;;1.50;;
13560;SDS011;6852;51.686;5.314;2022-10-16T06:56:32;8.77;;;2.40;;
13560;SDS011;6852;51.686;5.314;2022-10-16T06:58:59;3.33;;;1.60;;
13560;SDS011;6852;51.686;5.314;2022-10-16T07:01:27;3.13;;;1.63;;
13560;SDS011;6852;51.686;5.314;2022-10-16T07:03:54;2.50;;;1.37;;
13560;SDS011;6852;51.686;5.314;2022-10-16T07:06:22;3.03;;;1.83;;
13560;SDS011;6852;51.686;5.314;2022-10-16T07:08:50;2.70;;;1.73;;
13560;SDS011;6852;51.686;5.314;2022-10-16T07:11:18;3.07;;;1.80;;
13560;SDS011;6852;51.686;5.314;2022-10-16T07:13:47;1.93;;;1.20;;
13560;SDS011;6852;51.686;5.314;2022-10-16T07:16:22;3.40;;;1.67;;
13560;SDS011;6852;51.686;5.314;2022-10-16T07:18:52;3.87;;;1.50;;
13560;SDS011;6852;51.686;5.314;2022-10-16T07:21:27;2.20;;;1.57;;
13560;SDS011;6852;51.686;5.314;2022-10-16T07:23:57;3.60;;;1.70;;
13560;SDS011;6852;51.686;5.314;2022-10-16T07:26:25;1.53;;;1.17;;
13560;SDS011;6852;51.686;5.314;2022-10-16T07:28:54;3.57;;;1.60;;
13560;SDS011;6852;51.686;5.314;2022-10-16T07:31:21;3.87;;;1.47;;
13560;SDS011;6852;51.686;5.314;2022-10-16T07:33:49;2.60;;;1.40;;
13560;SDS011;6852;51.686;5.314;2022-10-16T07:36:17;2.17;;;1.50;;
13560;SDS011;6852;51.686;5.314;2022-10-16T07:38:45;1.77;;;1.40;;
13560;SDS011;6852;51.686;5.314;2022-10-16T07:41:14;3.47;;;1.73;;
13560;SDS011;6852;51.686;5.314;2022-10-16T07:43:50;1.50;;;1.40;;
13560;SDS011;6852;51.686;5.314;2022-10-16T07:46:21;1.97;;;1.40;;
13560;SDS011;6852;51.686;5.314;2022-10-16T07:48:50;4.80;;;1.43;;
13560;SDS011;6852;51.686;5.314;2022-10-16T07:51:18;1.73;;;1.30;;
13560;SDS011;6852;51.686;5.314;2022-10-16T07:53:46;3.80;;;1.23;;
13560;SDS011;6852;51.686;5.314;2022-10-16T07:56:14;5.03;;;1.40;;
13560;SDS011;6852;51.686;5.314;2022-10-16T07:58:42;1.83;;;1.30;;
13560;SDS011;6852;51.686;5.314;2022-10-16T08:01:12;3.40;;;1.50;;
13560;SDS011;6852;51.686;5.314;2022-10-16T08:03:44;2.83;;;1.40;;
13560;SDS011;6852;51.686;5.314;2022-10-16T08:06:12;4.63;;;1.53;;
13560;SDS011;6852;51.686;5.314;2022-10-16T08:08:39;5.37;;;1.37;;
13560;SDS011;6852;51.686;5.314;2022-10-16T08:11:06;2.73;;;1.47;;
13560;SDS011;6852;51.686;5.314;2022-10-16T08:13:34;3.53;;;1.77;;
13560;SDS011;6852;51.686;5.314;2022-10-16T08:16:01;1.97;;;1.17;;
13560;SDS011;6852;51.686;5.314;2022-10-16T08:18:29;5.10;;;1.30;;
13560;SDS011;6852;51.686;5.314;2022-10-16T08:20:57;2.53;;;1.30;;
13560;SDS011;6852;51.686;5.314;2022-10-16T08:23:26;3.40;;;1.27;;
13560;SDS011;6852;51.686;5.314;2022-10-16T08:25:54;3.03;;;1.20;;
13560;SDS011;6852;51.686;5.314;2022-10-16T08:28:21;3.23;;;1.50;;
13560;SDS011;6852;51.686;5.314;2022-10-16T08:30:49;3.27;;;1.30;;
13560;SDS011;6852;51.686;5.314;2022-10-16T08:33:16;4.40;;;1.20;;
13560;SDS011;6852;51.686;5.314;2022-10-16T08:35:43;4.20;;;1.10;;
13560;SDS011;6852;51.686;5.314;2022-10-16T08:38:17;4.67;;;1.53;;
13560;SDS011;6852;51.686;5.314;2022-10-16T08:40:43;8.93;;;1.37;;
13560;SDS011;6852;51.686;5.314;2022-10-16T08:51:05;4.80;;;1.20;;
13560;SDS011;6852;51.686;5.314;2022-10-16T08:56:05;5.20;;;1.27;;
13560;SDS011;6852;51.686;5.314;2022-10-16T08:58:34;1.97;;;1.20;;
13560;SDS011;6852;51.686;5.314;2022-10-16T09:01:02;5.20;;;1.47;;
13560;SDS011;6852;51.686;5.314;2022-10-16T09:06:26;6.67;;;1.50;;
13560;SDS011;6852;51.686;5.314;2022-10-16T09:17:59;3.50;;;1.10;;
13560;SDS011;6852;51.686;5.314;2022-10-16T09:20:25;4.53;;;1.10;;
13560;SDS011;6852;51.686;5.314;2022-10-16T09:22:55;6.10;;;1.07;;
13560;SDS011;6852;51.686;5.314;2022-10-16T09:25:29;4.70;;;0.93;;
13560;SDS011;6852;51.686;5.314;2022-10-16T09:27:57;5.40;;;1.50;;
13560;SDS011;6852;51.686;5.314;2022-10-16T09:30:26;3.63;;;1.13;;
13560;SDS011;6852;51.686;5.314;2022-10-16T09:32:57;12.53;;;3.67;;
13560;SDS011;6852;51.686;5.314;2022-10-16T09:35:58;3.30;;;1.63;;
13560;SDS011;6852;51.686;5.314;2022-10-16T09:41:00;5.13;;;1.93;;
13560;SDS011;6852;51.686;5.314;2022-10-16T09:46:06;5.13;;;1.33;;
13560;SDS011;6852;51.686;5.314;2022-10-16T09:51:18;3.97;;;1.30;;
13560;SDS011;6852;51.686;5.314;2022-10-16T09:54:13;8.93;;;2.40;;
13560;SDS011;6852;51.686;5.314;2022-10-16T09:56:42;5.33;;;1.13;;
13560;SDS011;6852;51.686;5.314;2022-10-16T09:59:16;6.40;;;1.23;;
13560;SDS011;6852;51.686;5.314;2022-10-16T10:01:45;5.70;;;1.77;;
13560;SDS011;6852;51.686;5.314;2022-10-16T10:04:20;7.73;;;2.07;;
13560;SDS011;6852;51.686;5.314;2022-10-16T10:06:53;9.73;;;1.33;;
13560;SDS011;6852;51.686;5.314;2022-10-16T10:09:25;5.27;;;1.40;;
13560;SDS011;6852;51.686;5.314;2022-10-16T10:11:55;6.13;;;1.47;;
13560;SDS011;6852;51.686;5.314;2022-10-16T10:19:46;5.60;;;1.63;;
13560;SDS011;6852;51.686;5.314;2022-10-16T10:22:17;3.83;;;1.30;;
13560;SDS011;6852;51.686;5.314;2022-10-16T10:39:12;9.00;;;1.23;;
13560;SDS011;6852;51.686;5.314;2022-10-16T11:01:30;10.70;;;1.43;;
13560;SDS011;6852;51.686;5.314;2022-10-16T11:04:22;11.00;;;1.60;;
13560;SDS011;6852;51.686;5.314;2022-10-16T11:07:05;8.00;;;1.40;;
13560;SDS011;6852;51.686;5.314;2022-10-16T11:09:44;5.30;;;1.20;;
13560;SDS011;6852;51.686;5.314;2022-10-16T11:14:54;8.83;;;1.43;;
13560;SDS011;6852;51.686;5.314;2022-10-16T11:17:45;9.43;;;1.70;;
13560;SDS011;6852;51.686;5.314;2022-10-16T11:20:32;5.87;;;1.23;;
13560;SDS011;6852;51.686;5.314;2022-10-16T11:26:10;11.30;;;1.30;;
13560;SDS011;6852;51.686;5.314;2022-10-16T11:28:51;3.87;;;1.67;;
13560;SDS011;6852;51.686;5.314;2022-10-16T11:31:28;8.33;;;1.50;;
13560;SDS011;6852;51.686;5.314;2022-10-16T11:36:51;7.40;;;1.70;;
13560;SDS011;6852;51.686;5.314;2022-10-16T11:39:29;10.17;;;1.80;;
13560;SDS011;6852;51.686;5.314;2022-10-16T11:42:05;8.97;;;1.60;;
13560;SDS011;6852;51.686;5.314;2022-10-16T11:47:34;5.47;;;1.40;;
13560;SDS011;6852;51.686;5.314;2022-10-16T11:53:23;9.53;;;1.80;;
13560;SDS011;6852;51.686;5.314;2022-10-16T11:56:18;10.13;;;1.93;;
13560;SDS011;6852;51.686;5.314;2022-10-16T11:58:54;5.57;;;1.23;;
13560;SDS011;6852;51.686;5.314;2022-10-16T12:01:31;7.57;;;1.37;;
13560;SDS011;6852;51.686;5.314;2022-10-16T12:09:15;7.13;;;1.30;;
13560;SDS011;6852;51.686;5.314;2022-10-16T12:11:51;6.23;;;1.60;;
13560;SDS011;6852;51.686;5.314;2022-10-16T12:14:21;7.17;;;1.83;;
13560;SDS011;6852;51.686;5.314;2022-10-16T12:17:23;7.07;;;1.87;;
13560;SDS011;6852;51.686;5.314;2022-10-16T12:19:59;7.87;;;1.57;;
13560;SDS011;6852;51.686;5.314;2022-10-16T12:22:47;6.07;;;1.37;;
13560;SDS011;6852;51.686;5.314;2022-10-16T12:25:19;6.37;;;1.30;;
13560;SDS011;6852;51.686;5.314;2022-10-16T12:27:58;11.87;;;2.23;;
13560;SDS011;6852;51.686;5.314;2022-10-16T12:30:53;5.17;;;1.53;;
13560;SDS011;6852;51.686;5.314;2022-10-16T12:33:26;7.43;;;1.73;;
13560;SDS011;6852;51.686;5.314;2022-10-16T12:35:57;7.13;;;1.50;;
13560;SDS011;6852;51.686;5.314;2022-10-16T12:38:37;5.40;;;1.47;;
13560;SDS011;6852;51.686;5.314;2022-10-16T12:41:12;6.60;;;1.40;;
13560;SDS011;6852;51.686;5.314;2022-10-16T12:44:00;6.20;;;1.63;;
13560;SDS011;6852;51.686;5.314;2022-10-16T12:51:42;9.00;;;1.67;;
13560;SDS011;6852;51.686;5.314;2022-10-16T13:10:26;4.53;;;1.40;;
13560;SDS011;6852;51.686;5.314;2022-10-16T13:15:50;5.00;;;1.30;;
13560;SDS011;6852;51.686;5.314;2022-10-16T13:19:18;8.23;;;2.07;;
13560;SDS011;6852;51.686;5.314;2022-10-16T13:24:10;3.50;;;1.40;;
13560;SDS011;6852;51.686;5.314;2022-10-16T13:29:36;8.73;;;1.60;;
13560;SDS011;6852;51.686;5.314;2022-10-16T13:32:07;8.17;;;1.60;;
13560;SDS011;6852;51.686;5.314;2022-10-16T13:34:43;5.93;;;1.60;;
13560;SDS011;6852;51.686;5.314;2022-10-16T13:37:19;7.60;;;1.80;;
13560;SDS011;6852;51.686;5.314;2022-10-16T13:40:01;5.07;;;1.10;;
13560;SDS011;6852;51.686;5.314;2022-10-16T13:42:34;4.77;;;1.70;;
13560;SDS011;6852;51.686;5.314;2022-10-16T13:45:01;6.47;;;1.57;;
13560;SDS011;6852;51.686;5.314;2022-10-16T13:47:29;6.00;;;1.30;;
13560;SDS011;6852;51.686;5.314;2022-10-16T13:50:04;4.63;;;1.40;;
13560;SDS011;6852;51.686;5.314;2022-10-16T13:52:35;4.93;;;1.57;;
13560;SDS011;6852;51.686;5.314;2022-10-16T13:55:09;8.17;;;1.60;;
13560;SDS011;6852;51.686;5.314;2022-10-16T13:57:37;4.13;;;1.50;;
13560;SDS011;6852;51.686;5.314;2022-10-16T14:00:26;6.10;;;1.57;;
13560;SDS011;6852;51.686;5.314;2022-10-16T14:03:01;9.33;;;1.60;;
13560;SDS011;6852;51.686;5.314;2022-10-16T14:05:30;5.33;;;2.23;;
13560;SDS011;6852;51.686;5.314;2022-10-16T14:07:58;6.30;;;1.30;;
13560;SDS011;6852;51.686;5.314;2022-10-16T14:10:27;4.23;;;1.10;;
13560;SDS011;6852;51.686;5.314;2022-10-16T14:13:04;3.83;;;1.00;;
13560;SDS011;6852;51.686;5.314;2022-10-16T14:15:33;7.70;;;2.30;;
13560;SDS011;6852;51.686;5.314;2022-10-16T14:18:02;4.17;;;0.93;;
13560;SDS011;6852;51.686;5.314;2022-10-16T14:20:32;7.70;;;1.40;;
13560;SDS011;6852;51.686;5.314;2022-10-16T14:25:44;6.83;;;1.40;;
13560;SDS011;6852;51.686;5.314;2022-10-16T14:28:18;3.37;;;1.03;;
13560;SDS011;6852;51.686;5.314;2022-10-16T14:33:21;2.63;;;0.87;;
13560;SDS011;6852;51.686;5.314;2022-10-16T14:38:37;6.67;;;1.13;;
13560;SDS011;6852;51.686;5.314;2022-10-16T14:41:05;5.87;;;1.10;;
13560;SDS011;6852;51.686;5.314;2022-10-16T14:43:34;5.30;;;1.10;;
13560;SDS011;6852;51.686;5.314;2022-10-16T14:46:12;4.00;;;1.17;;
13560;SDS011;6852;51.686;5.314;2022-10-16T14:48:46;7.37;;;1.47;;
13560;SDS011;6852;51.686;5.314;2022-10-16T14:51:19;5.23;;;1.03;;
13560;SDS011;6852;51.686;5.314;2022-10-16T14:53:47;3.87;;;1.13;;
13560;SDS011;6852;51.686;5.314;2022-10-16T14:56:57;3.33;;;1.20;;
13560;SDS011;6852;51.686;5.314;2022-10-16T14:59:30;4.27;;;1.20;;
13560;SDS011;6852;51.686;5.314;2022-10-16T15:02:08;7.47;;;1.10;;
13560;SDS011;6852;51.686;5.314;2022-10-16T15:04:50;4.70;;;1.30;;
13560;SDS011;6852;51.686;5.314;2022-10-16T15:07:17;7.73;;;1.87;;
13560;SDS011;6852;51.686;5.314;2022-10-16T15:09:44;6.73;;;1.13;;
13560;SDS011;6852;51.686;5.314;2022-10-16T15:12:15;4.27;;;1.20;;
13560;SDS011;6852;51.686;5.314;2022-10-16T15:14:42;6.13;;;1.20;;
13560;SDS011;6852;51.686;5.314;2022-10-16T15:17:09;3.87;;;1.17;;
13560;SDS011;6852;51.686;5.314;2022-10-16T15:19:37;4.07;;;1.30;;
13560;SDS011;6852;51.686;5.314;2022-10-16T15:22:04;5.10;;;1.23;;
13560;SDS011;6852;51.686;5.314;2022-10-16T15:24:31;2.93;;;1.13;;
13560;SDS011;6852;51.686;5.314;2022-10-16T15:26:58;6.47;;;1.37;;
13560;SDS011;6852;51.686;5.314;2022-10-16T15:29:25;3.37;;;0.87;;
13560;SDS011;6852;51.686;5.314;2022-10-16T15:31:53;3.33;;;1.30;;
13560;SDS011;6852;51.686;5.314;2022-10-16T15:34:20;4.80;;;0.93;;
13560;SDS011;6852;51.686;5.314;2022-10-16T15:36:47;3.47;;;1.13;;
13560;SDS011;6852;51.686;5.314;2022-10-16T15:41:42;3.07;;;1.10;;
13560;SDS011;6852;51.686;5.314;2022-10-16T15:44:10;3.87;;;1.00;;
13560;SDS011;6852;51.686;5.314;2022-10-16T15:46:37;4.77;;;1.00;;
13560;SDS011;6852;51.686;5.314;2022-10-16T15:49:04;7.17;;;1.30;;
13560;SDS011;6852;51.686;5.314;2022-10-16T15:51:33;2.83;;;1.07;;
13560;SDS011;6852;51.686;5.314;2022-10-16T15:54:04;5.40;;;1.20;;
13560;SDS011;6852;51.686;5.314;2022-10-16T15:56:31;4.97;;;1.33;;
13560;SDS011;6852;51.686;5.314;2022-10-16T15:58:59;3.67;;;0.90;;
13560;SDS011;6852;51.686;5.314;2022-10-16T16:01:28;4.80;;;1.23;;
13560;SDS011;6852;51.686;5.314;2022-10-16T16:03:58;3.07;;;1.20;;
13560;SDS011;6852;51.686;5.314;2022-10-16T16:06:25;5.67;;;1.60;;
13560;SDS011;6852;51.686;5.314;2022-10-16T16:08:52;4.13;;;1.80;;
13560;SDS011;6852;51.686;5.314;2022-10-16T16:11:20;3.83;;;1.47;;
13560;SDS011;6852;51.686;5.314;2022-10-16T16:13:48;4.93;;;1.40;;
13560;SDS011;6852;51.686;5.314;2022-10-16T16:16:17;4.97;;;1.40;;
13560;SDS011;6852;51.686;5.314;2022-10-16T16:18:46;4.43;;;1.30;;
13560;SDS011;6852;51.686;5.314;2022-10-16T16:21:15;6.33;;;1.10;;
13560;SDS011;6852;51.686;5.314;2022-10-16T16:23:42;5.00;;;1.03;;
13560;SDS011;6852;51.686;5.314;2022-10-16T16:28:53;4.17;;;1.20;;
13560;SDS011;6852;51.686;5.314;2022-10-16T16:31:25;4.60;;;1.20;;
13560;SDS011;6852;51.686;5.314;2022-10-16T16:33:54;2.83;;;1.40;;
13560;SDS011;6852;51.686;5.314;2022-10-16T16:36:21;4.37;;;1.37;;
13560;SDS011;6852;51.686;5.314;2022-10-16T16:38:48;6.50;;;1.67;;
13560;SDS011;6852;51.686;5.314;2022-10-16T16:41:20;6.30;;;1.93;;
13560;SDS011;6852;51.686;5.314;2022-10-16T16:43:49;5.37;;;1.60;;
13560;SDS011;6852;51.686;5.314;2022-10-16T16:46:17;6.20;;;1.53;;
13560;SDS011;6852;51.686;5.314;2022-10-16T16:48:45;8.03;;;1.87;;
13560;SDS011;6852;51.686;5.314;2022-10-16T16:51:14;4.80;;;2.00;;
13560;SDS011;6852;51.686;5.314;2022-10-16T16:53:48;5.67;;;2.20;;
13560;SDS011;6852;51.686;5.314;2022-10-16T16:56:16;9.43;;;3.87;;
13560;SDS011;6852;51.686;5.314;2022-10-16T16:58:47;9.53;;;3.90;;
13560;SDS011;6852;51.686;5.314;2022-10-16T17:01:15;7.97;;;3.03;;
13560;SDS011;6852;51.686;5.314;2022-10-16T17:03:45;5.87;;;2.43;;
13560;SDS011;6852;51.686;5.314;2022-10-16T17:06:16;7.00;;;2.27;;
13560;SDS011;6852;51.686;5.314;2022-10-16T17:08:46;5.83;;;2.30;;
13560;SDS011;6852;51.686;5.314;2022-10-16T17:11:15;5.13;;;2.83;;
13560;SDS011;6852;51.686;5.314;2022-10-16T17:13:44;7.47;;;2.50;;
13560;SDS011;6852;51.686;5.314;2022-10-16T17:16:21;6.17;;;2.60;;
13560;SDS011;6852;51.686;5.314;2022-10-16T17:18:49;5.13;;;3.23;;
13560;SDS011;6852;51.686;5.314;2022-10-16T17:21:17;6.83;;;2.20;;
13560;SDS011;6852;51.686;5.314;2022-10-16T17:23:44;8.27;;;2.47;;
13560;SDS011;6852;51.686;5.314;2022-10-16T17:26:13;7.07;;;1.83;;
13560;SDS011;6852;51.686;5.314;2022-10-16T17:28:41;7.43;;;2.37;;
13560;SDS011;6852;51.686;5.314;2022-10-16T17:33:40;6.17;;;2.17;;
13560;SDS011;6852;51.686;5.314;2022-10-16T17:36:07;5.47;;;2.60;;
13560;SDS011;6852;51.686;5.314;2022-10-16T17:38:35;3.90;;;1.90;;
13560;SDS011;6852;51.686;5.314;2022-10-16T17:41:21;5.13;;;1.90;;
13560;SDS011;6852;51.686;5.314;2022-10-16T17:43:49;4.63;;;2.00;;
13560;SDS011;6852;51.686;5.314;2022-10-16T17:46:18;3.33;;;2.37;;
13560;SDS011;6852;51.686;5.314;2022-10-16T17:48:48;5.17;;;2.37;;
13560;SDS011;6852;51.686;5.314;2022-10-16T17:51:18;5.23;;;2.57;;